createdAt,value
2022-11-28T00:02:16.677Z,100728.16
2022-11-28T00:04:53.487Z,100707.03
2022-11-28T00:07:26.354Z,100727.41
2022-11-28T00:09:59.245Z,100729.22
2022-11-28T00:12:32.016Z,100731.03
2022-11-28T00:15:05.838Z,100687.91
2022-11-28T00:17:38.645Z,100712.75
2022-11-28T00:20:13.425Z,100678.38
2022-11-28T00:22:46.202Z,100660.00
2022-11-28T00:25:19.313Z,100691.13
2022-11-28T00:27:52.150Z,100698.97
2022-11-28T00:30:24.973Z,100658.41
2022-11-28T00:32:57.822Z,100687.81
2022-11-28T00:35:31.975Z,100681.84
2022-11-28T00:38:04.781Z,100664.34
2022-11-28T00:40:37.577Z,100694.81
2022-11-28T00:43:11.581Z,100698.44
2022-11-28T00:45:47.024Z,100686.66
2022-11-28T00:48:20.634Z,100690.66
2022-11-28T00:50:55.628Z,100684.09
2022-11-28T00:53:28.248Z,100682.59
2022-11-28T00:56:01.186Z,100678.03
2022-11-28T00:58:34.669Z,100671.03
2022-11-28T01:01:11.866Z,100671.97
2022-11-28T01:03:45.602Z,100675.28
2022-11-28T01:06:24.204Z,100641.41
2022-11-28T01:08:58.605Z,100674.84
2022-11-28T01:11:31.895Z,100655.00
2022-11-28T01:14:04.958Z,100665.63
2022-11-28T01:16:38.700Z,100642.69
2022-11-28T01:19:11.943Z,100657.53
2022-11-28T01:21:46.426Z,100649.69
2022-11-28T01:24:19.423Z,100626.56
2022-11-28T01:26:52.175Z,100648.63
2022-11-28T01:29:25.098Z,100644.28
2022-11-28T01:31:58.587Z,100639.06
2022-11-28T01:34:31.495Z,100639.69
2022-11-28T01:37:05.898Z,100640.44
2022-11-28T01:39:39.746Z,100605.66
2022-11-28T01:42:17.497Z,100600.47
2022-11-28T01:45:07.806Z,100608.25
2022-11-28T01:47:41.513Z,100615.25
2022-11-28T01:50:15.047Z,100615.13
2022-11-28T01:52:53.801Z,100580.25
2022-11-28T01:55:31.308Z,100598.91
2022-11-28T01:58:04.843Z,100605.72
2022-11-28T02:00:37.762Z,100573.25
2022-11-28T02:03:14.584Z,100602.72
2022-11-28T02:05:48.567Z,100588.09
2022-11-28T02:08:22.817Z,100581.28
2022-11-28T02:11:14.508Z,100589.31
2022-11-28T02:13:55.343Z,100581.06
2022-11-28T02:16:46.010Z,100569.38
2022-11-28T02:19:54.223Z,100585.50
2022-11-28T02:22:35.951Z,100552.94
2022-11-28T02:26:03.219Z,100575.97
2022-11-28T02:29:20.136Z,100565.41
2022-11-28T02:32:10.045Z,100566.56
2022-11-28T02:34:49.970Z,100582.50
2022-11-28T02:37:30.136Z,100550.50
2022-11-28T02:40:11.613Z,100585.72
2022-11-28T02:43:00.549Z,100592.25
2022-11-28T02:45:39.713Z,100593.13
2022-11-28T02:48:19.419Z,100591.31
2022-11-28T02:50:57.061Z,100595.44
2022-11-28T02:53:32.644Z,100571.50
2022-11-28T02:56:05.926Z,100570.66
2022-11-28T02:58:38.825Z,100601.47
2022-11-28T03:01:18.928Z,100579.34
2022-11-28T03:04:21.904Z,100585.06
2022-11-28T03:07:02.377Z,100598.09
2022-11-28T03:09:52.614Z,100568.06
2022-11-28T03:12:33.761Z,100596.28
2022-11-28T03:15:09.168Z,100603.13
2022-11-28T03:17:54.217Z,100578.31
2022-11-28T03:20:37.751Z,100582.84
2022-11-28T03:23:16.161Z,100597.38
2022-11-28T03:25:58.982Z,100571.94
2022-11-28T03:28:42.047Z,100599.78
2022-11-28T03:31:20.437Z,100576.44
2022-11-28T03:33:58.328Z,100592.25
2022-11-28T03:36:35.444Z,100596.91
2022-11-28T03:39:12.436Z,100593.53
2022-11-28T03:41:51.605Z,100506.44
2022-11-28T03:44:29.496Z,100589.72
2022-11-28T03:47:05.683Z,100581.16
2022-11-28T03:49:41.731Z,100592.78
2022-11-28T03:52:24.606Z,100567.47
2022-11-28T03:55:01.683Z,100592.25
2022-11-28T03:57:43.298Z,100595.16
2022-11-28T04:00:17.354Z,100575.13
2022-11-28T04:02:56.611Z,100604.56
2022-11-28T04:05:36.906Z,100597.56
2022-11-28T04:08:17.091Z,100605.34
2022-11-28T04:10:56.464Z,100611.38
2022-11-28T04:13:35.032Z,100580.41
2022-11-28T04:16:13.930Z,100603.72
2022-11-28T04:18:53.573Z,100600.16
2022-11-28T04:21:31.758Z,100556.03
2022-11-28T04:24:11.826Z,100601.00
2022-11-28T04:26:49.235Z,100582.84
2022-11-28T04:29:25.496Z,100598.53
2022-11-28T04:32:00.566Z,100588.66
2022-11-28T04:34:35.711Z,100579.47
2022-11-28T04:37:10.142Z,100588.88
2022-11-28T04:39:48.118Z,100559.44
2022-11-28T04:42:24.370Z,100591.31
2022-11-28T04:45:01.463Z,100587.91
2022-11-28T04:47:34.627Z,100592.19
2022-11-28T04:50:08.783Z,100591.22
2022-11-28T04:52:47.725Z,100589.59
2022-11-28T04:55:29.957Z,100583.44
2022-11-28T04:58:10.051Z,100554.50
2022-11-28T05:00:44.248Z,100574.16
2022-11-28T05:03:17.956Z,100583.81
2022-11-28T05:05:52.439Z,100579.22
2022-11-28T05:08:25.563Z,100566.00
2022-11-28T05:10:59.806Z,100582.13
2022-11-28T05:13:32.610Z,100583.81
2022-11-28T05:16:05.993Z,100552.31
2022-11-28T05:18:38.815Z,100590.81
2022-11-28T05:21:12.120Z,100563.22
2022-11-28T05:23:46.160Z,100551.59
2022-11-28T05:26:22.268Z,100580.41
2022-11-28T05:28:55.080Z,100580.84
2022-11-28T05:31:27.939Z,100591.78
2022-11-28T05:34:00.717Z,100591.03
2022-11-28T05:36:33.540Z,100596.34
2022-11-28T05:39:06.311Z,100589.13
2022-11-28T05:41:40.428Z,100597.81
2022-11-28T05:44:13.205Z,100595.88
2022-11-28T05:46:45.957Z,100593.34
2022-11-28T05:49:20.806Z,100576.41
2022-11-28T05:51:53.613Z,100601.44
2022-11-28T05:54:26.427Z,100608.66
2022-11-28T05:57:00.638Z,100598.03
2022-11-28T05:59:33.486Z,100602.59
2022-11-28T06:02:06.311Z,100596.34
2022-11-28T06:04:41.726Z,100571.75
2022-11-28T06:07:14.613Z,100551.63
2022-11-28T06:09:47.493Z,100588.59
2022-11-28T06:12:21.622Z,100589.56
2022-11-28T06:14:54.388Z,100586.28
2022-11-28T06:17:27.206Z,100584.25
2022-11-28T06:19:59.991Z,100574.28
2022-11-28T06:22:32.834Z,100580.84
2022-11-28T06:25:06.602Z,100583.50
2022-11-28T06:27:40.878Z,100577.91
2022-11-28T06:30:14.715Z,100586.28
2022-11-28T06:32:47.498Z,100588.28
2022-11-28T06:35:20.313Z,100555.00
2022-11-28T06:37:53.285Z,100584.66
2022-11-28T06:40:27.559Z,100564.56
2022-11-28T06:43:01.703Z,100578.34
2022-11-28T06:45:34.944Z,100542.00
2022-11-28T06:48:07.766Z,100574.72
2022-11-28T06:50:40.592Z,100580.03
2022-11-28T06:53:13.507Z,100572.81
2022-11-28T06:55:46.500Z,100547.81
2022-11-28T06:58:20.685Z,100590.66
2022-11-28T07:00:54.158Z,100579.53
2022-11-28T07:03:26.994Z,100585.22
2022-11-28T07:06:01.223Z,100550.88
2022-11-28T07:08:34.778Z,100585.97
2022-11-28T07:11:13.175Z,100568.81
2022-11-28T07:13:48.290Z,100595.97
2022-11-28T07:16:23.704Z,100602.22
2022-11-28T07:18:57.345Z,100593.66
2022-11-28T07:21:30.887Z,100594.50
2022-11-28T07:24:03.753Z,100596.41
2022-11-28T07:26:37.876Z,100599.81
2022-11-28T07:29:15.147Z,100609.88
2022-11-28T07:31:48.218Z,100605.53
2022-11-28T07:34:20.973Z,100609.16
2022-11-28T07:36:53.745Z,100608.91
2022-11-28T07:39:27.147Z,100610.84
2022-11-28T07:41:59.973Z,100600.88
2022-11-28T07:44:34.396Z,100608.41
2022-11-28T07:47:07.373Z,100629.00
2022-11-28T07:49:40.619Z,100618.59
2022-11-28T07:52:13.632Z,100622.00
2022-11-28T07:54:46.799Z,100625.38
2022-11-28T07:57:19.681Z,100625.28
2022-11-28T07:59:53.750Z,100621.88
2022-11-28T08:02:27.045Z,100620.19
2022-11-28T08:05:00.135Z,100618.16
2022-11-28T08:07:33.296Z,100603.72
2022-11-28T08:10:07.787Z,100618.81
2022-11-28T08:12:40.534Z,100625.28
2022-11-28T08:15:14.764Z,100618.69
2022-11-28T08:17:47.488Z,100622.06
2022-11-28T08:20:20.248Z,100620.88
2022-11-28T08:22:53.049Z,100629.72
2022-11-28T08:25:25.864Z,100626.94
2022-11-28T08:27:58.731Z,100632.75
2022-11-28T08:30:33.084Z,100622.03
2022-11-28T08:33:05.925Z,100591.41
2022-11-28T08:35:40.286Z,100617.34
2022-11-28T08:38:13.035Z,100576.31
2022-11-28T08:40:45.876Z,100617.78
2022-11-28T08:43:18.691Z,100618.38
2022-11-28T08:45:52.866Z,100620.06
2022-11-28T08:48:25.845Z,100616.47
2022-11-28T08:50:58.573Z,100622.53
2022-11-28T08:53:31.797Z,100621.56
2022-11-28T08:56:04.909Z,100615.19
2022-11-28T08:58:37.812Z,100614.94
2022-11-28T09:01:18.746Z,100594.84
2022-11-28T09:03:52.302Z,100618.97
2022-11-28T09:06:25.473Z,100624.28
2022-11-28T09:08:58.925Z,100625.00
2022-11-28T09:11:32.275Z,100627.66
2022-11-28T09:14:05.136Z,100625.00
2022-11-28T09:16:40.364Z,100621.38
2022-11-28T09:19:13.212Z,100625.72
2022-11-28T09:21:46.004Z,100633.50
2022-11-28T09:24:18.999Z,100635.06
2022-11-28T09:26:51.779Z,100601.88
2022-11-28T09:29:24.523Z,100633.03
2022-11-28T09:31:58.772Z,100634.63
2022-11-28T09:34:31.656Z,100636.22
2022-11-28T09:37:05.130Z,100627.22
2022-11-28T09:39:57.079Z,100645.03
2022-11-28T09:42:37.230Z,100639.47
2022-11-28T09:45:15.763Z,100624.00
2022-11-28T09:47:53.592Z,100614.44
2022-11-28T09:50:28.937Z,100630.94
2022-11-28T09:53:09.735Z,100634.56
2022-11-28T09:55:47.417Z,100643.78
2022-11-28T09:58:29.141Z,100640.16
2022-11-28T10:01:12.076Z,100645.25
2022-11-28T10:03:55.049Z,100643.34
2022-11-28T10:06:35.716Z,100646.00
2022-11-28T10:09:23.594Z,100640.31
2022-11-28T10:12:12.113Z,100625.06
2022-11-28T10:14:55.701Z,100593.56
2022-11-28T10:17:37.942Z,100644.34
2022-11-28T10:20:16.792Z,100633.81
2022-11-28T10:22:54.715Z,100639.84
2022-11-28T10:25:31.430Z,100642.28
2022-11-28T10:28:06.232Z,100636.97
2022-11-28T10:30:43.884Z,100629.09
2022-11-28T10:33:23.296Z,100634.94
2022-11-28T10:35:59.985Z,100635.91
2022-11-28T10:38:36.830Z,100635.53
2022-11-28T10:41:19.759Z,100637.03
2022-11-28T10:43:59.280Z,100639.69
2022-11-28T10:46:44.394Z,100639.75
2022-11-28T10:49:29.855Z,100633.97
2022-11-28T10:52:13.070Z,100633.50
2022-11-28T10:55:12.394Z,100635.09
2022-11-28T10:57:52.294Z,100631.22
2022-11-28T11:00:25.176Z,100625.81
2022-11-28T11:03:02.143Z,100628.47
2022-11-28T11:05:36.644Z,100634.84
2022-11-28T11:08:20.169Z,100592.59
2022-11-28T11:10:58.071Z,100630.63
2022-11-28T11:13:33.256Z,100626.41
2022-11-28T11:16:08.831Z,100632.19
2022-11-28T11:18:52.925Z,100630.16
2022-11-28T11:21:27.622Z,100633.91
2022-11-28T11:24:16.883Z,100632.56
2022-11-28T11:26:50.084Z,100636.78
2022-11-28T11:29:24.922Z,100630.63
2022-11-28T11:32:03.338Z,100629.53
2022-11-28T11:34:43.592Z,100607.66
2022-11-28T11:37:33.021Z,100633.31
2022-11-28T11:40:23.692Z,100630.41
2022-11-28T11:42:58.206Z,100624.59
2022-11-28T11:45:34.035Z,100622.44
2022-11-28T11:48:06.816Z,100619.28
2022-11-28T11:50:41.214Z,100631.88
2022-11-28T11:53:14.861Z,100606.22
2022-11-28T11:55:52.302Z,100629.72
2022-11-28T11:58:29.030Z,100606.44
2022-11-28T12:01:03.269Z,100636.34
2022-11-28T12:03:41.508Z,100615.38
2022-11-28T12:06:16.675Z,100619.00
2022-11-28T12:08:52.818Z,100626.75
2022-11-28T12:11:32.543Z,100637.56
2022-11-28T12:14:22.664Z,100636.22
2022-11-28T12:17:32.639Z,100636.72
2022-11-28T12:20:23.118Z,100637.56
2022-11-28T12:23:04.647Z,100644.22
2022-11-28T12:25:42.844Z,100634.28
2022-11-28T12:28:26.617Z,100640.22
2022-11-28T12:31:09.117Z,100645.19
2022-11-28T12:33:53.766Z,100643.72
2022-11-28T12:36:34.883Z,100643.47
2022-11-28T12:39:18.597Z,100640.34
2022-11-28T12:42:10.031Z,100635.50
2022-11-28T12:44:56.760Z,100640.34
2022-11-28T12:47:41.479Z,100649.25
2022-11-28T12:50:26.112Z,100644.91
2022-11-28T12:53:18.125Z,100644.31
2022-11-28T12:55:59.813Z,100639.72
2022-11-28T12:58:41.758Z,100638.63
2022-11-28T13:01:33.835Z,100631.41
2022-11-28T13:04:20.078Z,100639.13
2022-11-28T13:07:02.411Z,100639.13
2022-11-28T13:09:38.252Z,100609.47
2022-11-28T13:12:23.840Z,100629.91
2022-11-28T13:14:59.632Z,100618.06
2022-11-28T13:17:42.655Z,100641.78
2022-11-28T13:20:23.664Z,100645.19
2022-11-28T13:23:07.348Z,100645.66
2022-11-28T13:25:49.932Z,100620.97
2022-11-28T13:28:29.142Z,100644.56
2022-11-28T13:31:08.071Z,100639.72
2022-11-28T13:33:51.380Z,100627.25
2022-11-28T13:39:37.819Z,100643.00
2022-11-28T13:45:28.398Z,100597.34
2022-11-28T13:51:34.152Z,100622.91
2022-11-28T13:54:48.347Z,100653.41
2022-11-28T13:57:29.182Z,100632.19
2022-11-28T14:00:21.371Z,100656.31
2022-11-28T14:02:56.086Z,100611.75
2022-11-28T14:05:32.887Z,100636.59
2022-11-28T14:08:08.048Z,100641.06
2022-11-28T14:11:00.576Z,100659.69
2022-11-28T14:13:52.230Z,100659.44
2022-11-28T14:16:45.435Z,100639.13
2022-11-28T14:19:34.199Z,100659.22
2022-11-28T14:22:26.770Z,100644.66
2022-11-28T14:25:09.228Z,100668.13
2022-11-28T14:27:52.035Z,100667.03
2022-11-28T14:30:31.674Z,100673.22
2022-11-28T14:33:08.591Z,100682.16
2022-11-28T14:36:04.564Z,100680.59
2022-11-28T14:38:46.119Z,100653.84
2022-11-28T14:41:21.576Z,100667.16
2022-11-28T14:43:54.428Z,100680.25
2022-11-28T14:46:30.617Z,100673.97
2022-11-28T14:49:31.602Z,100682.91
2022-11-28T14:52:38.984Z,100675.88
2022-11-28T14:55:22.931Z,100645.09
2022-11-28T14:58:01.163Z,100687.22
2022-11-28T15:00:47.410Z,100672.59
2022-11-28T15:03:32.928Z,100678.50
2022-11-28T15:06:13.226Z,100681.28
2022-11-28T15:09:01.881Z,100663.94
2022-11-28T15:11:59.382Z,100690.00
2022-11-28T15:14:34.100Z,100687.44
2022-11-28T15:17:12.878Z,100684.91
2022-11-28T15:19:49.362Z,100689.00
2022-11-28T15:22:31.731Z,100690.97
2022-11-28T15:25:05.139Z,100697.84
2022-11-28T15:27:38.257Z,100692.28
2022-11-28T15:30:18.280Z,100698.09
2022-11-28T15:32:56.258Z,100703.66
2022-11-28T15:35:30.379Z,100666.13
2022-11-28T15:38:04.148Z,100699.78
2022-11-28T15:40:37.886Z,100653.00
2022-11-28T15:43:15.256Z,100707.88
2022-11-28T15:45:51.335Z,100677.34
2022-11-28T15:48:32.606Z,100654.69
2022-11-28T15:51:09.331Z,100698.66
2022-11-28T15:53:43.121Z,100711.41
2022-11-28T15:56:17.043Z,100717.16
2022-11-28T15:58:51.595Z,100681.66
2022-11-28T16:01:27.143Z,100705.59
2022-11-28T16:04:03.106Z,100631.16
2022-11-28T16:06:39.196Z,100706.53
2022-11-28T16:09:27.320Z,100673.34
2022-11-28T16:12:00.608Z,100701.56
2022-11-28T16:14:36.396Z,100709.09
2022-11-28T16:17:19.214Z,100709.09
2022-11-28T16:19:55.273Z,100708.25
2022-11-28T16:22:36.073Z,100714.63
2022-11-28T16:25:15.207Z,100725.38
2022-11-28T16:27:52.824Z,100726.88
2022-11-28T16:30:45.473Z,100711.13
2022-11-28T16:33:41.753Z,100690.25
2022-11-28T16:36:22.909Z,100733.03
2022-11-28T16:39:09.190Z,100739.19
2022-11-28T16:41:51.845Z,100696.53
2022-11-28T16:44:26.106Z,100745.97
2022-11-28T16:46:59.618Z,100736.03
2022-11-28T16:49:36.754Z,100696.97
2022-11-28T16:52:48.521Z,100742.19
2022-11-28T16:55:42.518Z,100743.75
2022-11-28T16:58:23.592Z,100746.66
2022-11-28T17:01:02.807Z,100719.50
2022-11-28T17:03:44.860Z,100746.41
2022-11-28T17:06:22.279Z,100750.03
2022-11-28T17:08:55.367Z,100733.81
2022-11-28T17:11:30.531Z,100745.97
2022-11-28T17:14:06.227Z,100695.81
2022-11-28T17:16:42.399Z,100752.97
2022-11-28T17:19:15.224Z,100729.25
2022-11-28T17:21:51.890Z,100756.00
2022-11-28T17:24:27.268Z,100727.16
2022-11-28T17:27:00.169Z,100759.63
2022-11-28T17:29:32.958Z,100756.84
2022-11-28T17:32:06.376Z,100760.47
2022-11-28T17:34:40.121Z,100756.63
2022-11-28T17:37:14.344Z,100764.94
2022-11-28T17:40:01.034Z,100760.69
2022-11-28T17:42:33.873Z,100764.31
2022-11-28T17:45:13.944Z,100759.22
2022-11-28T17:47:46.730Z,100766.00
2022-11-28T17:50:19.696Z,100770.28
2022-11-28T17:52:54.458Z,100760.31
2022-11-28T17:55:28.225Z,100772.81
2022-11-28T17:58:01.059Z,100771.13
2022-11-28T18:00:34.202Z,100730.09
2022-11-28T18:03:07.591Z,100774.75
2022-11-28T18:05:42.606Z,100770.47
2022-11-28T18:08:22.296Z,100773.03
2022-11-28T18:11:04.203Z,100746.09
2022-11-28T18:13:37.341Z,100773.66
2022-11-28T18:16:11.265Z,100747.34
2022-11-28T18:18:45.494Z,100761.66
2022-11-28T18:21:19.495Z,100748.78
2022-11-28T18:23:54.482Z,100775.84
2022-11-28T18:26:27.821Z,100775.97
2022-11-28T18:29:01.372Z,100779.59
2022-11-28T18:31:35.371Z,100763.59
2022-11-28T18:34:09.428Z,100784.91
2022-11-28T18:36:42.289Z,100771.13
2022-11-28T18:39:17.220Z,100778.84
2022-11-28T18:41:50.778Z,100782.81
2022-11-28T18:44:24.296Z,100792.88
2022-11-28T18:46:57.475Z,100791.06
2022-11-28T18:49:30.939Z,100792.88
2022-11-28T18:52:03.832Z,100794.69
2022-11-28T18:54:38.681Z,100791.91
2022-11-28T18:57:11.529Z,100782.59
2022-11-28T18:59:51.248Z,100799.69
2022-11-28T19:02:26.172Z,100809.38
2022-11-28T19:04:59.399Z,100809.13
2022-11-28T19:07:32.683Z,100812.16
2022-11-28T19:10:08.889Z,100783.88
2022-11-28T19:12:41.840Z,100811.06
2022-11-28T19:15:14.859Z,100816.16
2022-11-28T19:17:48.450Z,100812.44
2022-11-28T19:20:22.401Z,100815.19
2022-11-28T19:22:55.173Z,100816.78
2022-11-28T19:25:29.677Z,100818.69
2022-11-28T19:28:02.543Z,100819.78
2022-11-28T19:30:35.596Z,100823.41
2022-11-28T19:33:08.710Z,100810.81
2022-11-28T19:35:41.484Z,100823.16
2022-11-28T19:38:14.260Z,100821.47
2022-11-28T19:40:48.635Z,100795.25
2022-11-28T19:43:21.394Z,100796.09
2022-11-28T19:45:57.807Z,100825.09
2022-11-28T19:48:32.019Z,100835.72
2022-11-28T19:51:05.851Z,100826.38
2022-11-28T19:53:42.746Z,100837.44
2022-11-28T19:56:19.348Z,100836.69
2022-11-28T19:58:52.717Z,100825.09
2022-11-28T20:01:25.862Z,100830.66
2022-11-28T20:03:59.686Z,100812.91
2022-11-28T20:06:33.769Z,100838.28
2022-11-28T20:09:09.444Z,100835.50
2022-11-28T20:11:47.740Z,100829.44
2022-11-28T20:14:21.108Z,100809.63
2022-11-28T20:16:53.960Z,100837.22
2022-11-28T20:19:27.001Z,100844.25
2022-11-28T20:22:01.030Z,100811.97
2022-11-28T20:24:33.832Z,100842.44
2022-11-28T20:27:08.462Z,100848.47
2022-11-28T20:29:41.636Z,100844.00
2022-11-28T20:32:15.752Z,100836.38
2022-11-28T20:34:48.623Z,100835.00
2022-11-28T20:37:21.562Z,100848.16
2022-11-28T20:39:56.490Z,100834.03
2022-11-28T20:42:31.265Z,100860.69
2022-11-28T20:45:07.356Z,100853.69
2022-11-28T20:47:43.214Z,100871.13
2022-11-28T20:50:18.312Z,100846.38
2022-11-28T20:52:51.105Z,100823.34
2022-11-28T20:55:23.959Z,100868.47
2022-11-28T20:57:58.281Z,100846.50
2022-11-28T21:00:31.091Z,100862.38
2022-11-28T21:03:03.909Z,100871.75
2022-11-28T21:05:36.760Z,100859.84
2022-11-28T21:08:09.581Z,100870.38
2022-11-28T21:10:42.392Z,100816.66
2022-11-28T21:13:16.611Z,100868.47
2022-11-28T21:15:49.408Z,100877.91
2022-11-28T21:18:22.206Z,100883.97
2022-11-28T21:20:55.012Z,100871.63
2022-11-28T21:23:27.848Z,100875.69
2022-11-28T21:26:05.392Z,100884.81
2022-11-28T21:28:43.099Z,100884.09
2022-11-28T21:31:18.385Z,100884.19
2022-11-28T21:33:52.005Z,100878.66
2022-11-28T21:36:26.372Z,100876.94
2022-11-28T21:39:01.321Z,100886.63
2022-11-28T21:41:34.496Z,100876.94
2022-11-28T21:44:09.645Z,100880.56
2022-11-28T21:46:42.564Z,100864.69
2022-11-28T21:49:15.358Z,100882.91
2022-11-28T21:51:48.151Z,100875.25
2022-11-28T21:54:21.330Z,100885.66
2022-11-28T21:56:54.367Z,100889.81
2022-11-28T21:59:28.955Z,100860.41
2022-11-28T22:02:02.655Z,100885.66
2022-11-28T22:04:37.008Z,100887.84
2022-11-28T22:07:10.421Z,100894.41
2022-11-28T22:09:44.625Z,100894.41
2022-11-28T22:12:17.440Z,100889.53
2022-11-28T22:14:51.686Z,100897.28
2022-11-28T22:17:24.558Z,100902.50
2022-11-28T22:19:57.349Z,100897.50
2022-11-28T22:22:30.506Z,100870.44
2022-11-28T22:25:04.544Z,100891.47
2022-11-28T22:27:38.018Z,100904.22
2022-11-28T22:30:13.994Z,100900.78
2022-11-28T22:32:47.165Z,100901.75
2022-11-28T22:35:20.562Z,100908.88
2022-11-28T22:37:54.933Z,100903.56
2022-11-28T22:40:28.182Z,100886.81
2022-11-28T22:43:00.983Z,100900.16
2022-11-28T22:45:35.321Z,100906.09
2022-11-28T22:48:08.499Z,100906.94
2022-11-28T22:50:41.313Z,100902.72
2022-11-28T22:53:14.272Z,100903.91
2022-11-28T22:55:47.021Z,100916.13
2022-11-28T22:58:20.248Z,100896.06
2022-11-28T23:00:54.544Z,100918.47
2022-11-28T23:03:27.585Z,100915.28
2022-11-28T23:06:00.598Z,100912.88
2022-11-28T23:08:34.017Z,100921.22
2022-11-28T23:11:08.099Z,100925.09
2022-11-28T23:13:44.161Z,100925.81
2022-11-28T23:16:20.514Z,100897.44
2022-11-28T23:18:55.945Z,100927.63
2022-11-28T23:21:31.399Z,100927.63
2022-11-28T23:24:05.071Z,100924.00
2022-11-28T23:26:38.373Z,100930.19
2022-11-28T23:29:11.405Z,100932.09
2022-11-28T23:31:48.191Z,100934.75
2022-11-28T23:34:21.634Z,100940.81
2022-11-28T23:36:54.395Z,100932.09
2022-11-28T23:39:27.871Z,100904.19
2022-11-28T23:42:09.495Z,100933.31
2022-11-28T23:44:43.056Z,100943.47
2022-11-28T23:47:17.617Z,100939.78
2022-11-28T23:49:50.411Z,100931.66
2022-11-28T23:52:23.224Z,100942.06
2022-11-28T23:54:56.007Z,100930.19
2022-11-28T23:57:31.820Z,100938.88
